sensor_id;sensor_type;location;lat;lon;timestamp;P1;durP1;ratioP1;P2;durP2;ratioP2
57085;SDS011;42964;42.910;23.792;2023-09-12T00:02:18;10.95;;;6.50;;
57085;SDS011;42964;42.910;23.792;2023-09-12T00:07:17;9.65;;;6.55;;
57085;SDS011;42964;42.910;23.792;2023-09-12T00:12:16;10.13;;;6.32;;
57085;SDS011;42964;42.910;23.792;2023-09-12T00:17:15;10.70;;;6.43;;
57085;SDS011;42964;42.910;23.792;2023-09-12T00:22:14;13.10;;;7.30;;
57085;SDS011;42964;42.910;23.792;2023-09-12T00:27:13;13.30;;;6.65;;
57085;SDS011;42964;42.910;23.792;2023-09-12T00:32:12;14.70;;;7.10;;
57085;SDS011;42964;42.910;23.792;2023-09-12T00:37:11;15.32;;;7.57;;
57085;SDS011;42964;42.910;23.792;2023-09-12T00:42:10;15.65;;;7.18;;
57085;SDS011;42964;42.910;23.792;2023-09-12T00:47:09;11.15;;;6.68;;
57085;SDS011;42964;42.910;23.792;2023-09-12T00:52:10;9.57;;;6.28;;
57085;SDS011;42964;42.910;23.792;2023-09-12T00:57:10;12.90;;;6.10;;
57085;SDS011;42964;42.910;23.792;2023-09-12T01:02:09;10.60;;;6.30;;
57085;SDS011;42964;42.910;23.792;2023-09-12T01:07:08;12.10;;;6.80;;
57085;SDS011;42964;42.910;23.792;2023-09-12T01:12:08;14.02;;;5.90;;
57085;SDS011;42964;42.910;23.792;2023-09-12T01:17:07;10.20;;;6.32;;
57085;SDS011;42964;42.910;23.792;2023-09-12T01:22:26;13.65;;;6.50;;
57085;SDS011;42964;42.910;23.792;2023-09-12T01:27:42;10.60;;;5.97;;
57085;SDS011;42964;42.910;23.792;2023-09-12T01:32:45;12.45;;;6.70;;
57085;SDS011;42964;42.910;23.792;2023-09-12T01:37:45;12.43;;;7.03;;
57085;SDS011;42964;42.910;23.792;2023-09-12T01:42:45;14.93;;;6.80;;
57085;SDS011;42964;42.910;23.792;2023-09-12T01:47:45;10.48;;;6.50;;
57085;SDS011;42964;42.910;23.792;2023-09-12T01:52:46;11.68;;;6.32;;
57085;SDS011;42964;42.910;23.792;2023-09-12T01:57:45;10.98;;;6.50;;
57085;SDS011;42964;42.910;23.792;2023-09-12T02:02:46;13.88;;;7.25;;
57085;SDS011;42964;42.910;23.792;2023-09-12T02:07:45;15.65;;;7.53;;
57085;SDS011;42964;42.910;23.792;2023-09-12T02:12:45;13.90;;;7.55;;
57085;SDS011;42964;42.910;23.792;2023-09-12T02:17:43;9.77;;;6.50;;
57085;SDS011;42964;42.910;23.792;2023-09-12T02:22:42;12.30;;;7.15;;
57085;SDS011;42964;42.910;23.792;2023-09-12T02:27:41;12.23;;;6.53;;
57085;SDS011;42964;42.910;23.792;2023-09-12T02:32:43;11.73;;;7.10;;
57085;SDS011;42964;42.910;23.792;2023-09-12T02:37:42;14.50;;;7.85;;
57085;SDS011;42964;42.910;23.792;2023-09-12T02:42:41;16.02;;;7.55;;
57085;SDS011;42964;42.910;23.792;2023-09-12T02:47:40;13.82;;;8.10;;
57085;SDS011;42964;42.910;23.792;2023-09-12T02:52:41;12.90;;;8.18;;
57085;SDS011;42964;42.910;23.792;2023-09-12T02:57:40;13.55;;;7.85;;
57085;SDS011;42964;42.910;23.792;2023-09-12T03:02:39;11.48;;;7.05;;
57085;SDS011;42964;42.910;23.792;2023-09-12T03:07:38;13.02;;;7.80;;
57085;SDS011;42964;42.910;23.792;2023-09-12T03:12:37;13.82;;;7.35;;
57085;SDS011;42964;42.910;23.792;2023-09-12T03:17:36;16.70;;;8.40;;
57085;SDS011;42964;42.910;23.792;2023-09-12T03:22:35;14.80;;;8.95;;
57085;SDS011;42964;42.910;23.792;2023-09-12T03:27:37;12.23;;;8.43;;
57085;SDS011;42964;42.910;23.792;2023-09-12T03:32:36;15.38;;;9.00;;
57085;SDS011;42964;42.910;23.792;2023-09-12T03:37:35;13.00;;;7.85;;
57085;SDS011;42964;42.910;23.792;2023-09-12T03:42:38;17.33;;;8.85;;
57085;SDS011;42964;42.910;23.792;2023-09-12T03:47:37;13.50;;;8.48;;
57085;SDS011;42964;42.910;23.792;2023-09-12T03:52:36;14.52;;;8.63;;
57085;SDS011;42964;42.910;23.792;2023-09-12T03:57:35;14.68;;;8.25;;
57085;SDS011;42964;42.910;23.792;2023-09-12T04:02:34;17.80;;;8.77;;
57085;SDS011;42964;42.910;23.792;2023-09-12T04:07:33;16.98;;;8.95;;
57085;SDS011;42964;42.910;23.792;2023-09-12T04:12:32;18.75;;;9.30;;
57085;SDS011;42964;42.910;23.792;2023-09-12T04:17:31;15.40;;;8.60;;
57085;SDS011;42964;42.910;23.792;2023-09-12T04:22:30;17.50;;;10.25;;
57085;SDS011;42964;42.910;23.792;2023-09-12T04:27:29;18.65;;;10.30;;
57085;SDS011;42964;42.910;23.792;2023-09-12T04:32:28;24.52;;;8.85;;
57085;SDS011;42964;42.910;23.792;2023-09-12T04:42:26;21.65;;;9.35;;
57085;SDS011;42964;42.910;23.792;2023-09-12T04:47:25;17.48;;;10.05;;
57085;SDS011;42964;42.910;23.792;2023-09-12T04:52:24;17.15;;;8.95;;
57085;SDS011;42964;42.910;23.792;2023-09-12T04:57:23;19.83;;;8.68;;
57085;SDS011;42964;42.910;23.792;2023-09-12T05:02:22;94.90;;;17.75;;
57085;SDS011;42964;42.910;23.792;2023-09-12T05:07:21;148.50;;;22.90;;
57085;SDS011;42964;42.910;23.792;2023-09-12T05:12:20;94.97;;;20.33;;
57085;SDS011;42964;42.910;23.792;2023-09-12T05:17:19;75.90;;;16.42;;
57085;SDS011;42964;42.910;23.792;2023-09-12T05:22:18;79.07;;;17.75;;
57085;SDS011;42964;42.910;23.792;2023-09-12T05:27:17;54.08;;;15.55;;
57085;SDS011;42964;42.910;23.792;2023-09-12T05:32:16;44.67;;;11.75;;
57085;SDS011;42964;42.910;23.792;2023-09-12T05:37:15;25.83;;;10.88;;
57085;SDS011;42964;42.910;23.792;2023-09-12T05:42:14;18.30;;;9.77;;
57085;SDS011;42964;42.910;23.792;2023-09-12T05:47:19;19.45;;;10.15;;
57085;SDS011;42964;42.910;23.792;2023-09-12T05:52:19;21.77;;;10.05;;
57085;SDS011;42964;42.910;23.792;2023-09-12T05:57:18;26.02;;;10.52;;
57085;SDS011;42964;42.910;23.792;2023-09-12T06:02:17;20.13;;;10.10;;
57085;SDS011;42964;42.910;23.792;2023-09-12T06:07:16;19.73;;;8.95;;
57085;SDS011;42964;42.910;23.792;2023-09-12T06:17:14;14.15;;;9.20;;
57085;SDS011;42964;42.910;23.792;2023-09-12T06:22:13;17.55;;;8.43;;
57085;SDS011;42964;42.910;23.792;2023-09-12T06:27:13;18.67;;;7.90;;
57085;SDS011;42964;42.910;23.792;2023-09-12T06:32:17;18.30;;;7.88;;
57085;SDS011;42964;42.910;23.792;2023-09-12T06:37:17;12.60;;;7.30;;
57085;SDS011;42964;42.910;23.792;2023-09-12T06:42:17;13.23;;;8.20;;
57085;SDS011;42964;42.910;23.792;2023-09-12T06:52:14;14.60;;;7.57;;
57085;SDS011;42964;42.910;23.792;2023-09-12T07:02:12;11.05;;;6.57;;
57085;SDS011;42964;42.910;23.792;2023-09-12T07:07:11;13.65;;;6.25;;
57085;SDS011;42964;42.910;23.792;2023-09-12T07:17:09;10.73;;;5.37;;
57085;SDS011;42964;42.910;23.792;2023-09-12T07:22:08;9.43;;;5.38;;
57085;SDS011;42964;42.910;23.792;2023-09-12T07:32:05;6.60;;;3.80;;
57085;SDS011;42964;42.910;23.792;2023-09-12T07:37:04;8.48;;;4.28;;
57085;SDS011;42964;42.910;23.792;2023-09-12T07:42:03;9.40;;;4.78;;
57085;SDS011;42964;42.910;23.792;2023-09-12T07:47:03;9.65;;;4.78;;
57085;SDS011;42964;42.910;23.792;2023-09-12T07:52:02;7.50;;;4.35;;
57085;SDS011;42964;42.910;23.792;2023-09-12T07:57:01;9.63;;;4.63;;
57085;SDS011;42964;42.910;23.792;2023-09-12T08:02:00;31.52;;;5.85;;
57085;SDS011;42964;42.910;23.792;2023-09-12T08:06:59;10.50;;;4.38;;
57085;SDS011;42964;42.910;23.792;2023-09-12T08:11:58;10.43;;;4.88;;
57085;SDS011;42964;42.910;23.792;2023-09-12T08:16:57;9.40;;;4.07;;
57085;SDS011;42964;42.910;23.792;2023-09-12T08:21:56;13.95;;;4.03;;
57085;SDS011;42964;42.910;23.792;2023-09-12T08:26:55;7.22;;;4.72;;
57085;SDS011;42964;42.910;23.792;2023-09-12T08:31:54;9.68;;;3.80;;
57085;SDS011;42964;42.910;23.792;2023-09-12T08:36:53;9.82;;;4.07;;
57085;SDS011;42964;42.910;23.792;2023-09-12T08:41:53;10.75;;;4.20;;
57085;SDS011;42964;42.910;23.792;2023-09-12T08:46:52;10.57;;;4.30;;
57085;SDS011;42964;42.910;23.792;2023-09-12T08:51:51;8.13;;;4.70;;
57085;SDS011;42964;42.910;23.792;2023-09-12T08:56:50;9.30;;;4.15;;
57085;SDS011;42964;42.910;23.792;2023-09-12T09:01:50;7.60;;;4.22;;
57085;SDS011;42964;42.910;23.792;2023-09-12T09:06:50;7.60;;;3.95;;
57085;SDS011;42964;42.910;23.792;2023-09-12T09:11:50;8.95;;;4.40;;
57085;SDS011;42964;42.910;23.792;2023-09-12T09:16:49;6.18;;;3.90;;
57085;SDS011;42964;42.910;23.792;2023-09-12T09:21:49;11.30;;;4.22;;
57085;SDS011;42964;42.910;23.792;2023-09-12T09:31:58;17.23;;;4.55;;
57085;SDS011;42964;42.910;23.792;2023-09-12T09:36:58;7.03;;;3.75;;
57085;SDS011;42964;42.910;23.792;2023-09-12T09:42:01;11.10;;;4.10;;
57085;SDS011;42964;42.910;23.792;2023-09-12T09:52:12;7.53;;;3.47;;
57085;SDS011;42964;42.910;23.792;2023-09-12T09:57:11;6.25;;;3.10;;
57085;SDS011;42964;42.910;23.792;2023-09-12T10:02:11;6.88;;;3.55;;
57085;SDS011;42964;42.910;23.792;2023-09-12T10:07:18;6.15;;;3.38;;
57085;SDS011;42964;42.910;23.792;2023-09-12T10:12:17;8.57;;;4.10;;
57085;SDS011;42964;42.910;23.792;2023-09-12T10:17:16;8.52;;;3.65;;
57085;SDS011;42964;42.910;23.792;2023-09-12T10:28:10;7.38;;;3.75;;
57085;SDS011;42964;42.910;23.792;2023-09-12T10:33:10;5.60;;;3.08;;
57085;SDS011;42964;42.910;23.792;2023-09-12T10:38:10;8.60;;;3.88;;
57085;SDS011;42964;42.910;23.792;2023-09-12T10:43:12;9.98;;;4.40;;
57085;SDS011;42964;42.910;23.792;2023-09-12T10:48:13;7.78;;;3.65;;
57085;SDS011;42964;42.910;23.792;2023-09-12T10:53:12;6.72;;;3.95;;
57085;SDS011;42964;42.910;23.792;2023-09-12T10:58:12;8.75;;;4.07;;
57085;SDS011;42964;42.910;23.792;2023-09-12T11:08:26;5.68;;;3.70;;
57085;SDS011;42964;42.910;23.792;2023-09-12T11:13:27;8.43;;;3.70;;
57085;SDS011;42964;42.910;23.792;2023-09-12T11:24:15;7.60;;;3.42;;
57085;SDS011;42964;42.910;23.792;2023-09-12T11:29:15;7.07;;;3.88;;
57085;SDS011;42964;42.910;23.792;2023-09-12T11:34:14;8.25;;;4.53;;
57085;SDS011;42964;42.910;23.792;2023-09-12T11:39:23;11.88;;;4.28;;
57085;SDS011;42964;42.910;23.792;2023-09-12T11:44:26;6.20;;;3.60;;
57085;SDS011;42964;42.910;23.792;2023-09-12T11:49:25;8.38;;;3.58;;
57085;SDS011;42964;42.910;23.792;2023-09-12T11:54:26;6.55;;;3.40;;
57085;SDS011;42964;42.910;23.792;2023-09-12T11:59:25;7.20;;;3.92;;
57085;SDS011;42964;42.910;23.792;2023-09-12T12:04:25;8.82;;;4.18;;
57085;SDS011;42964;42.910;23.792;2023-09-12T12:09:24;5.53;;;3.33;;
57085;SDS011;42964;42.910;23.792;2023-09-12T12:14:23;10.35;;;4.00;;
57085;SDS011;42964;42.910;23.792;2023-09-12T12:19:22;7.80;;;3.85;;
57085;SDS011;42964;42.910;23.792;2023-09-12T12:24:21;5.80;;;3.45;;
57085;SDS011;42964;42.910;23.792;2023-09-12T12:29:20;11.68;;;3.75;;
57085;SDS011;42964;42.910;23.792;2023-09-12T12:34:23;8.60;;;3.33;;
57085;SDS011;42964;42.910;23.792;2023-09-12T12:39:22;9.30;;;3.72;;
57085;SDS011;42964;42.910;23.792;2023-09-12T12:44:22;7.50;;;3.85;;
57085;SDS011;42964;42.910;23.792;2023-09-12T12:49:37;8.52;;;4.97;;
57085;SDS011;42964;42.910;23.792;2023-09-12T12:54:37;6.85;;;3.60;;
57085;SDS011;42964;42.910;23.792;2023-09-12T12:59:36;7.65;;;3.67;;
57085;SDS011;42964;42.910;23.792;2023-09-12T13:04:37;8.88;;;3.33;;
57085;SDS011;42964;42.910;23.792;2023-09-12T13:09:36;9.80;;;3.92;;
57085;SDS011;42964;42.910;23.792;2023-09-12T13:14:36;5.82;;;3.80;;
57085;SDS011;42964;42.910;23.792;2023-09-12T13:19:35;7.85;;;3.60;;
57085;SDS011;42964;42.910;23.792;2023-09-12T13:24:34;6.70;;;3.80;;
57085;SDS011;42964;42.910;23.792;2023-09-12T13:29:33;4.72;;;3.38;;
57085;SDS011;42964;42.910;23.792;2023-09-12T13:34:32;6.90;;;4.05;;
57085;SDS011;42964;42.910;23.792;2023-09-12T13:39:31;6.78;;;3.90;;
57085;SDS011;42964;42.910;23.792;2023-09-12T13:44:30;6.93;;;3.50;;
57085;SDS011;42964;42.910;23.792;2023-09-12T13:49:29;6.10;;;3.33;;
57085;SDS011;42964;42.910;23.792;2023-09-12T13:54:28;7.28;;;3.65;;
57085;SDS011;42964;42.910;23.792;2023-09-12T13:59:27;9.55;;;3.95;;
57085;SDS011;42964;42.910;23.792;2023-09-12T14:04:26;6.03;;;3.05;;
57085;SDS011;42964;42.910;23.792;2023-09-12T14:09:25;7.15;;;3.60;;
57085;SDS011;42964;42.910;23.792;2023-09-12T14:14:23;8.05;;;4.13;;
57085;SDS011;42964;42.910;23.792;2023-09-12T14:19:22;6.78;;;3.55;;
57085;SDS011;42964;42.910;23.792;2023-09-12T14:24:21;6.80;;;3.63;;
57085;SDS011;42964;42.910;23.792;2023-09-12T14:29:20;7.82;;;3.70;;
57085;SDS011;42964;42.910;23.792;2023-09-12T14:34:25;5.30;;;3.50;;
57085;SDS011;42964;42.910;23.792;2023-09-12T14:39:30;7.15;;;3.53;;
57085;SDS011;42964;42.910;23.792;2023-09-12T14:44:29;6.82;;;3.65;;
57085;SDS011;42964;42.910;23.792;2023-09-12T14:49:31;8.98;;;3.90;;
57085;SDS011;42964;42.910;23.792;2023-09-12T14:54:30;9.25;;;4.10;;
57085;SDS011;42964;42.910;23.792;2023-09-12T14:59:29;8.57;;;3.80;;
57085;SDS011;42964;42.910;23.792;2023-09-12T15:04:28;7.55;;;3.30;;
57085;SDS011;42964;42.910;23.792;2023-09-12T15:09:27;9.00;;;3.55;;
57085;SDS011;42964;42.910;23.792;2023-09-12T15:14:26;6.00;;;3.08;;
57085;SDS011;42964;42.910;23.792;2023-09-12T15:19:25;7.20;;;3.47;;
57085;SDS011;42964;42.910;23.792;2023-09-12T15:24:24;7.03;;;3.30;;
57085;SDS011;42964;42.910;23.792;2023-09-12T15:29:29;7.38;;;3.40;;
57085;SDS011;42964;42.910;23.792;2023-09-12T15:34:29;8.30;;;3.97;;
57085;SDS011;42964;42.910;23.792;2023-09-12T15:45:10;8.75;;;3.47;;
57085;SDS011;42964;42.910;23.792;2023-09-12T15:50:10;6.57;;;3.38;;
57085;SDS011;42964;42.910;23.792;2023-09-12T15:55:30;10.65;;;4.97;;
57085;SDS011;42964;42.910;23.792;2023-09-12T16:00:29;8.68;;;4.10;;
57085;SDS011;42964;42.910;23.792;2023-09-12T16:05:31;12.27;;;4.70;;
57085;SDS011;42964;42.910;23.792;2023-09-12T16:10:37;13.75;;;4.40;;
57085;SDS011;42964;42.910;23.792;2023-09-12T16:15:38;11.15;;;5.35;;
57085;SDS011;42964;42.910;23.792;2023-09-12T16:20:38;8.32;;;4.68;;
57085;SDS011;42964;42.910;23.792;2023-09-12T16:25:38;11.52;;;4.63;;
57085;SDS011;42964;42.910;23.792;2023-09-12T16:30:45;10.15;;;4.47;;
57085;SDS011;42964;42.910;23.792;2023-09-12T16:35:44;8.85;;;4.75;;
57085;SDS011;42964;42.910;23.792;2023-09-12T16:40:45;13.98;;;4.38;;
57085;SDS011;42964;42.910;23.792;2023-09-12T16:45:44;10.88;;;4.13;;
57085;SDS011;42964;42.910;23.792;2023-09-12T16:50:46;8.15;;;3.70;;
57085;SDS011;42964;42.910;23.792;2023-09-12T16:55:45;18.20;;;5.47;;
57085;SDS011;42964;42.910;23.792;2023-09-12T17:00:55;10.20;;;4.28;;
57085;SDS011;42964;42.910;23.792;2023-09-12T17:05:54;11.25;;;4.80;;
57085;SDS011;42964;42.910;23.792;2023-09-12T17:10:54;10.43;;;4.30;;
57085;SDS011;42964;42.910;23.792;2023-09-12T17:15:54;11.70;;;4.68;;
57085;SDS011;42964;42.910;23.792;2023-09-12T17:20:53;12.30;;;5.57;;
57085;SDS011;42964;42.910;23.792;2023-09-12T17:25:52;13.10;;;5.47;;
57085;SDS011;42964;42.910;23.792;2023-09-12T17:30:51;10.70;;;5.18;;
57085;SDS011;42964;42.910;23.792;2023-09-12T17:35:51;11.30;;;6.03;;
57085;SDS011;42964;42.910;23.792;2023-09-12T17:40:50;8.98;;;5.07;;
57085;SDS011;42964;42.910;23.792;2023-09-12T17:45:51;14.27;;;6.00;;
57085;SDS011;42964;42.910;23.792;2023-09-12T17:50:51;18.67;;;7.70;;
57085;SDS011;42964;42.910;23.792;2023-09-12T17:55:50;10.38;;;6.25;;
57085;SDS011;42964;42.910;23.792;2023-09-12T18:00:57;17.42;;;7.15;;
57085;SDS011;42964;42.910;23.792;2023-09-12T18:05:57;13.80;;;7.18;;
57085;SDS011;42964;42.910;23.792;2023-09-12T18:10:56;13.80;;;6.45;;
57085;SDS011;42964;42.910;23.792;2023-09-12T18:15:56;15.73;;;8.52;;
57085;SDS011;42964;42.910;23.792;2023-09-12T18:20:55;23.77;;;15.35;;
57085;SDS011;42964;42.910;23.792;2023-09-12T18:25:58;19.77;;;13.25;;
57085;SDS011;42964;42.910;23.792;2023-09-12T18:30:57;16.55;;;11.52;;
57085;SDS011;42964;42.910;23.792;2023-09-12T18:35:56;14.68;;;9.95;;
57085;SDS011;42964;42.910;23.792;2023-09-12T18:40:55;16.15;;;8.38;;
57085;SDS011;42964;42.910;23.792;2023-09-12T18:45:54;15.98;;;6.57;;
57085;SDS011;42964;42.910;23.792;2023-09-12T18:50:54;11.38;;;6.53;;
57085;SDS011;42964;42.910;23.792;2023-09-12T18:55:53;11.77;;;5.82;;
57085;SDS011;42964;42.910;23.792;2023-09-12T19:00:52;12.05;;;5.30;;
57085;SDS011;42964;42.910;23.792;2023-09-12T19:05:51;13.88;;;6.53;;
57085;SDS011;42964;42.910;23.792;2023-09-12T19:10:50;9.55;;;6.00;;
57085;SDS011;42964;42.910;23.792;2023-09-12T19:15:49;13.75;;;6.88;;
57085;SDS011;42964;42.910;23.792;2023-09-12T19:20:48;12.93;;;7.25;;
57085;SDS011;42964;42.910;23.792;2023-09-12T19:25:48;12.48;;;7.10;;
57085;SDS011;42964;42.910;23.792;2023-09-12T19:30:47;18.05;;;7.90;;
57085;SDS011;42964;42.910;23.792;2023-09-12T19:35:46;17.92;;;7.57;;
57085;SDS011;42964;42.910;23.792;2023-09-12T19:40:45;14.48;;;8.25;;
57085;SDS011;42964;42.910;23.792;2023-09-12T19:45:44;14.00;;;7.15;;
57085;SDS011;42964;42.910;23.792;2023-09-12T19:50:49;11.63;;;7.15;;
57085;SDS011;42964;42.910;23.792;2023-09-12T19:55:54;13.75;;;7.10;;
57085;SDS011;42964;42.910;23.792;2023-09-12T20:00:58;12.00;;;7.30;;
57085;SDS011;42964;42.910;23.792;2023-09-12T20:05:59;12.13;;;8.02;;
57085;SDS011;42964;42.910;23.792;2023-09-12T20:10:58;13.10;;;7.28;;
57085;SDS011;42964;42.910;23.792;2023-09-12T20:15:58;14.52;;;8.13;;
57085;SDS011;42964;42.910;23.792;2023-09-12T20:20:57;17.65;;;8.95;;
57085;SDS011;42964;42.910;23.792;2023-09-12T20:25:56;16.42;;;8.20;;
57085;SDS011;42964;42.910;23.792;2023-09-12T20:30:55;15.25;;;8.40;;
57085;SDS011;42964;42.910;23.792;2023-09-12T20:35:56;11.77;;;8.00;;
57085;SDS011;42964;42.910;23.792;2023-09-12T20:40:56;13.68;;;8.00;;
57085;SDS011;42964;42.910;23.792;2023-09-12T20:45:55;11.70;;;6.90;;
57085;SDS011;42964;42.910;23.792;2023-09-12T20:50:54;15.38;;;9.35;;
57085;SDS011;42964;42.910;23.792;2023-09-12T20:55:53;14.32;;;11.40;;
57085;SDS011;42964;42.910;23.792;2023-09-12T21:00:52;19.67;;;11.50;;
57085;SDS011;42964;42.910;23.792;2023-09-12T21:05:51;16.30;;;11.30;;
57085;SDS011;42964;42.910;23.792;2023-09-12T21:10:50;17.90;;;11.75;;
57085;SDS011;42964;42.910;23.792;2023-09-12T21:15:49;18.45;;;8.95;;
57085;SDS011;42964;42.910;23.792;2023-09-12T21:20:49;14.48;;;9.35;;
57085;SDS011;42964;42.910;23.792;2023-09-12T21:25:51;15.90;;;10.25;;
57085;SDS011;42964;42.910;23.792;2023-09-12T21:30:52;13.02;;;9.60;;
57085;SDS011;42964;42.910;23.792;2023-09-12T21:35:51;14.77;;;9.15;;
57085;SDS011;42964;42.910;23.792;2023-09-12T21:45:49;18.17;;;9.77;;
57085;SDS011;42964;42.910;23.792;2023-09-12T21:55:50;13.80;;;10.13;;
57085;SDS011;42964;42.910;23.792;2023-09-12T22:00:49;13.88;;;9.73;;
57085;SDS011;42964;42.910;23.792;2023-09-12T22:05:48;20.63;;;10.77;;
57085;SDS011;42964;42.910;23.792;2023-09-12T22:10:47;17.80;;;11.05;;
57085;SDS011;42964;42.910;23.792;2023-09-12T22:15:47;16.45;;;10.32;;
57085;SDS011;42964;42.910;23.792;2023-09-12T22:20:46;20.73;;;11.10;;
57085;SDS011;42964;42.910;23.792;2023-09-12T22:25:45;19.13;;;11.18;;
57085;SDS011;42964;42.910;23.792;2023-09-12T22:35:51;17.60;;;9.93;;
57085;SDS011;42964;42.910;23.792;2023-09-12T22:40:50;21.45;;;9.90;;
57085;SDS011;42964;42.910;23.792;2023-09-12T22:45:50;21.98;;;9.60;;
57085;SDS011;42964;42.910;23.792;2023-09-12T22:55:49;14.27;;;7.65;;
57085;SDS011;42964;42.910;23.792;2023-09-12T23:05:47;13.57;;;8.90;;
57085;SDS011;42964;42.910;23.792;2023-09-12T23:10:47;14.55;;;7.93;;
57085;SDS011;42964;42.910;23.792;2023-09-12T23:20:45;12.73;;;7.90;;
57085;SDS011;42964;42.910;23.792;2023-09-12T23:25:46;19.73;;;8.77;;
57085;SDS011;42964;42.910;23.792;2023-09-12T23:35:44;14.27;;;8.90;;
57085;SDS011;42964;42.910;23.792;2023-09-12T23:45:44;17.30;;;9.73;;
57085;SDS011;42964;42.910;23.792;2023-09-12T23:55:41;12.35;;;8.70;;
